Gerd Maersk — OYGM2 — position and weather

sailwx.info

Track history (hours):
 
Tides and Currents Weather Stations Pressure Air Temp Water Temp Dewpoint Dewpoint Depression Visibility Wind Speed Wind Dir Waves Ship Positions

Gerd Maersk

Last reported at 2015-Jul-27 18:33 UTC. Time now 2015-Aug-01 09:47 UTC.
Position N 33°36' E 122°47'.

Length 367 m; draft 9.9 m.

Type: Ship (hazmat cat A). MMSI: 220415000.

Date/timePositionNaut miles runAvg speedWind from/ knotsBaromVisibWave heightAir tempDewpointWater temp
2015-Jul-27 18:33N 33°36' E 122°47'5713.0
2015-Jul-27 14:08N 32°39' E 122°53'1313.4
2015-Jul-27 13:09N 32°26' E 122°53'813.5
2015-Jul-27 12:33N 32°18' E 122°53'1313.5
2015-Jul-27 11:33N 32°04' E 122°54'1313.1
2015-Jul-27 10:33N 31°51' E 122°57'3812.4
2015-Jul-27 07:31N 31°14' E 122°59'1111.7
2015-Jul-27 06:33N 31°02' E 122°58'1111.1
2015-Jul-27 05:33N 30°51' E 122°59'1311.2
2015-Jul-27 04:24N 30°38' E 122°58'911.0
2015-Jul-27 03:33N 30°33' E 122°49'2713.0
2015-Jul-27 01:30N 30°33' E 122°18'1414.3
2015-Jul-27 00:33N 30°37' E 122°03'1 0.4
2015-Jul-26 23:13N 30°38' E 122°03'0 0.0
2015-Jul-26 22:16N 30°38' E 122°03'0 0.0
2015-Jul-26 21:07N 30°38' E 122°03'0 0.1
2015-Jul-26 20:31N 30°38' E 122°03'0 0.0
2015-Jul-26 19:25N 30°38' E 122°03'0 0.0
2015-Jul-26 15:10N 30°38' E 122°03'0 0.0
2015-Jul-26 14:28N 30°38' E 122°03'0 0.0
2015-Jul-26 13:33N 30°38' E 122°03'3 2.6
2015-Jul-26 12:33N 30°36' E 122°05'1010.0
2015-Jul-26 11:33N 30°34' E 122°16'4 3.9
2015-Jul-26 10:33N 30°33' E 122°21'5 4.7
2015-Jul-26 09:33N 30°32' E 122°26'10 9.7
2015-Jul-26 08:31N 30°30' E 122°37'1010.0
2015-Jul-26 07:33N 30°26' E 122°48'10 9.8
2015-Jul-26 06:32N 30°19' E 122°56'42 7.0
2015-Jul-26 00:33N 29°47' E 122°26'8 7.6
2015-Jul-25 23:32N 29°46' E 122°17'1212.0
2015-Jul-25 22:30N 29°55' E 122°08'5 0.3
2015-Jul-25 07:31N 29°54' E 122°03'8 8.5
2015-Jul-25 06:33N 29°52' E 122°12'1110.6
2015-Jul-25 05:29N 29°44' E 122°21'2 0.3
2015-Jul-25 00:21N 29°45' E 122°23'4 5.6
2015-Jul-24 23:32N 29°43' E 122°28'8 5.7
2015-Jul-24 22:10N 29°41' E 122°37'5 4.9
2015-Jul-24 21:15N 29°36' E 122°38'14 7.3
2015-Jul-24 19:17N 29°23' E 122°32'5 7.5
2015-Jul-24 18:32N 29°17' E 122°31'339 9.7
2015-Jul-23 07:33N 24°32' E 119°07'5112.7
2015-Jul-23 03:31N 23°59' E 118°23'1212.7
2015-Jul-23 02:32N 23°51' E 118°13'1412.3
2015-Jul-23 01:23N 23°43' E 118°00'1011.7
2015-Jul-23 00:33N 23°37' E 117°52'1211.4
2015-Jul-22 23:27N 23°29' E 117°42'1110.9
2015-Jul-22 22:28N 23°21' E 117°33'2912.0
2015-Jul-22 20:05N 23°03' E 117°09'19111.5
2015-Jul-22 03:25N 22°09' E 113°50'1012.1
2015-Jul-22 02:33N 22°19' E 113°48'9 8.8
2015-Jul-22 01:28N 22°28' E 113°53'0 0.2
2015-Jul-22 00:31N 22°28' E 113°53'0 0.0
2015-Jul-21 23:31N 22°27' E 113°53'0 0.0
2015-Jul-21 22:25N 22°27' E 113°53'0 0.0
2015-Jul-21 21:19N 22°28' E 113°53'0 0.0
2015-Jul-21 20:31N 22°27' E 113°53'0 0.0
2015-Jul-21 19:31N 22°28' E 113°53'0 0.0
2015-Jul-21 18:31N 22°28' E 113°53'0 0.0
2015-Jul-21 17:31N 22°28' E 113°53'0 0.0
2015-Jul-21 16:25N 22°27' E 113°53'0 0.0
2015-Jul-21 15:31N 22°28' E 113°53'0 0.0
2015-Jul-21 14:31N 22°28' E 113°53'0 0.0
2015-Jul-21 13:31N 22°27' E 113°53'0 0.0
2015-Jul-21 12:31N 22°28' E 113°53'0 0.0
2015-Jul-21 11:31N 22°28' E 113°53'0 0.0
2015-Jul-21 10:31N 22°27' E 113°53'0 0.2
2015-Jul-21 09:34N 22°27' E 113°53'27 8.4
2015-Jul-21 06:19N 22°09' E 114°15'5 6.5
2015-Jul-21 05:28N 22°08' E 114°20'  
Track history (hours):
 
Tides and Currents Weather Stations Pressure Air Temp Water Temp Dewpoint Dewpoint Depression Visibility Wind Speed Wind Dir Waves Ship Positions

Gerd Maersk

Last reported at 2015-Jul-27 18:33 UTC. Time now 2015-Aug-01 09:47 UTC.
Position N 33°36' E 122°47'.

Length 367 m; draft 9.9 m.

Type: Ship (hazmat cat A). MMSI: 220415000.

Date/timePositionNaut miles runAvg speedWind from/ knotsBaromVisibWave heightAir tempDewpointWater temp
2015-Jul-27 18:33N 33°36' E 122°47'5713.0
2015-Jul-27 14:08N 32°39' E 122°53'1313.4
2015-Jul-27 13:09N 32°26' E 122°53'813.5
2015-Jul-27 12:33N 32°18' E 122°53'1313.5
2015-Jul-27 11:33N 32°04' E 122°54'1313.1
2015-Jul-27 10:33N 31°51' E 122°57'3812.4
2015-Jul-27 07:31N 31°14' E 122°59'1111.7
2015-Jul-27 06:33N 31°02' E 122°58'1111.1
2015-Jul-27 05:33N 30°51' E 122°59'1311.2
2015-Jul-27 04:24N 30°38' E 122°58'911.0
2015-Jul-27 03:33N 30°33' E 122°49'2713.0
2015-Jul-27 01:30N 30°33' E 122°18'1414.3
2015-Jul-27 00:33N 30°37' E 122°03'1 0.4
2015-Jul-26 23:13N 30°38' E 122°03'0 0.0
2015-Jul-26 22:16N 30°38' E 122°03'0 0.0
2015-Jul-26 21:07N 30°38' E 122°03'0 0.1
2015-Jul-26 20:31N 30°38' E 122°03'0 0.0
2015-Jul-26 19:25N 30°38' E 122°03'0 0.0
2015-Jul-26 15:10N 30°38' E 122°03'0 0.0
2015-Jul-26 14:28N 30°38' E 122°03'0 0.0
2015-Jul-26 13:33N 30°38' E 122°03'3 2.6
2015-Jul-26 12:33N 30°36' E 122°05'1010.0
2015-Jul-26 11:33N 30°34' E 122°16'4 3.9
2015-Jul-26 10:33N 30°33' E 122°21'5 4.7
2015-Jul-26 09:33N 30°32' E 122°26'10 9.7
2015-Jul-26 08:31N 30°30' E 122°37'1010.0
2015-Jul-26 07:33N 30°26' E 122°48'10 9.8
2015-Jul-26 06:32N 30°19' E 122°56'42 7.0
2015-Jul-26 00:33N 29°47' E 122°26'8 7.6
2015-Jul-25 23:32N 29°46' E 122°17'1212.0
2015-Jul-25 22:30N 29°55' E 122°08'5 0.3
2015-Jul-25 07:31N 29°54' E 122°03'8 8.5
2015-Jul-25 06:33N 29°52' E 122°12'1110.6
2015-Jul-25 05:29N 29°44' E 122°21'2 0.3
2015-Jul-25 00:21N 29°45' E 122°23'4 5.6
2015-Jul-24 23:32N 29°43' E 122°28'8 5.7
2015-Jul-24 22:10N 29°41' E 122°37'5 4.9
2015-Jul-24 21:15N 29°36' E 122°38'14 7.3
2015-Jul-24 19:17N 29°23' E 122°32'5 7.5
2015-Jul-24 18:32N 29°17' E 122°31'339 9.7
2015-Jul-23 07:33N 24°32' E 119°07'5112.7
2015-Jul-23 03:31N 23°59' E 118°23'1212.7
2015-Jul-23 02:32N 23°51' E 118°13'1412.3
2015-Jul-23 01:23N 23°43' E 118°00'1011.7
2015-Jul-23 00:33N 23°37' E 117°52'1211.4
2015-Jul-22 23:27N 23°29' E 117°42'1110.9
2015-Jul-22 22:28N 23°21' E 117°33'2912.0
2015-Jul-22 20:05N 23°03' E 117°09'19111.5
2015-Jul-22 03:25N 22°09' E 113°50'1012.1
2015-Jul-22 02:33N 22°19' E 113°48'9 8.8
2015-Jul-22 01:28N 22°28' E 113°53'0 0.2
2015-Jul-22 00:31N 22°28' E 113°53'0 0.0
2015-Jul-21 23:31N 22°27' E 113°53'0 0.0
2015-Jul-21 22:25N 22°27' E 113°53'0 0.0
2015-Jul-21 21:19N 22°28' E 113°53'0 0.0
2015-Jul-21 20:31N 22°27' E 113°53'0 0.0
2015-Jul-21 19:31N 22°28' E 113°53'0 0.0
2015-Jul-21 18:31N 22°28' E 113°53'0 0.0
2015-Jul-21 17:31N 22°28' E 113°53'0 0.0
2015-Jul-21 16:25N 22°27' E 113°53'0 0.0
2015-Jul-21 15:31N 22°28' E 113°53'0 0.0
2015-Jul-21 14:31N 22°28' E 113°53'0 0.0
2015-Jul-21 13:31N 22°27' E 113°53'0 0.0
2015-Jul-21 12:31N 22°28' E 113°53'0 0.0
2015-Jul-21 11:31N 22°28' E 113°53'0 0.0
2015-Jul-21 10:31N 22°27' E 113°53'0 0.2
2015-Jul-21 09:34N 22°27' E 113°53'27 8.4
2015-Jul-21 06:19N 22°09' E 114°15'5 6.5
2015-Jul-21 05:28N 22°08' E 114°20'  

Dump ship's entire track history